Terminal Aerodrome Forecast
Issued by NWS Upton, NY

Current Version | Previous Version | Text Only | Print | Product List | Glossary On
Versions: 1 2 3 4 5 6 7 8 9 10 11 12 13 14 15 16 17 18 19 20 21 22 23 24 25 26 27 28 29 30
000
FTUS41 KOKX 240800 AAA
TAFISP
TAF AMD
KISP 240830Z 2409/2506 33012KT P6SM OVC040
      TEMPO 2412/2415 6SM -SHRA BKN035
     FM241500 33014G21KT P6SM SCT030 BKN045
     FM242200 32010KT P6SM SCT045
     FM250000 32008KT P6SM SCT250=

USA.gov is the U.S. government's official web portal to all federal, state and local government web resources and services.